Time;durP1;ratioP1;P1;durP2;ratioP2;P2;SDS_P1;SDS_P2;PMS_P1;PMS_P2;Temp;Humidity;BMP_temperature;BMP_pressure;BME280_temperature;BME280_humidity;BME280_pressure;Samples;Min_cycle;Max_cycle;Signal;HPM_P1;HPM_P2
2023/02/06 00:31:07;;;;;;;31.88;10.27;;;-3.30;91.00;;;;;;5780381;24;20131;31
2023/02/06 01:20:12;;;;;;;18.77;6.18;;;-3.50;91.00;;;;;;5213315;24;20120;-78
2023/02/06 01:55:00;;;;;;;19.05;5.90;;;-3.70;91.50;;;;;;1164060;24;20324;-80
2023/02/06 01:58:12;;;;;;;16.58;5.25;;;-4.00;91.90;;;;;;4682972;30;20058;-79
2023/02/06 02:01:52;;;;;;;14.82;5.28;;;-3.80;91.50;;;;;;4679653;30;20054;-79
2023/02/06 02:04:27;;;;;;;17.42;6.82;;;-3.80;91.10;;;;;;4686874;30;20047;-80
2023/02/06 02:41:45;;;;;;;17.60;5.85;;;-3.90;92.20;;;;;;5136285;24;20925;-78
2023/02/06 02:45:24;;;;;;;17.42;5.22;;;-4.40;91.50;;;;;;4716812;30;20075;-78
2023/02/06 02:49:01;;;;;;;18.58;5.65;;;-3.50;91.80;;;;;;4715692;30;20052;-78
2023/02/06 02:51:38;;;;;;;17.63;6.00;;;-3.70;91.90;;;;;;4668657;30;20051;-79
2023/02/06 02:55:40;;;;;;;19.33;5.82;;;-3.30;92.10;;;;;;4681723;30;20047;-79
2023/02/06 02:59:02;;;;;;;19.05;5.30;;;-4.00;91.70;;;;;;4632467;31;20078;-80
2023/02/06 03:02:27;;;;;;;17.15;4.50;;;-4.40;92.20;;;;;;4549150;31;20057;-79
2023/02/06 03:06:05;;;;;;;24.52;7.25;;;-4.30;91.30;;;;;;4535134;31;20046;-81
2023/02/06 03:09:25;;;;;;;;;;;-4.30;91.40;;;;;;4488035;31;20079;-80
2023/02/06 03:12:19;;;;;;;37.35;8.75;;;-4.20;91.40;;;;;;4464521;31;19931;-78
2023/02/06 03:15:08;;;;;;;34.30;10.13;;;-5.30;91.70;;;;;;4499092;31;20075;-78
2023/02/06 03:17:57;;;;;;;28.45;9.07;;;-4.10;91.90;;;;;;4486276;31;20055;-79
2023/02/06 03:20:30;;;;;;;36.38;10.93;;;-4.00;91.60;;;;;;4513631;31;20068;-80
2023/02/06 03:23:36;;;;;;;29.50;10.15;;;-4.00;91.60;;;;;;4506135;31;20064;-79
2023/02/06 03:26:48;;;;;;;30.10;11.07;;;-4.70;91.50;;;;;;4485620;32;20067;-81
2023/02/06 03:29:56;;;;;;;21.98;6.78;;;-4.10;91.70;;;;;;4498360;32;20060;-86
2023/02/06 03:34:00;;;;;;;19.02;6.28;;;-4.20;91.30;;;;;;4466267;32;20091;-86
2023/02/06 03:37:17;;;;;;;11.73;3.97;;;-4.90;90.80;;;;;;4486710;32;20056;-80
2023/02/06 03:39:51;;;;;;;13.48;4.13;;;-4.50;91.10;;;;;;4500306;31;20108;-79
2023/02/06 03:42:23;;;;;;;11.50;3.80;;;-4.60;91.60;;;;;;4541378;31;20274;-81
2023/02/06 03:45:26;;;;;;;13.18;5.32;;;-4.80;91.10;;;;;;4519014;31;20078;-80
2023/02/06 03:48:19;;;;;;;13.25;4.60;;;-4.70;90.90;;;;;;4524461;31;20119;-80
2023/02/06 03:51:18;;;;;;;10.68;4.10;;;-4.80;91.10;;;;;;4544923;31;20058;-79
2023/02/06 03:54:33;;;;;;;9.65;3.72;;;-4.10;91.30;;;;;;4548508;31;20129;-83
2023/02/06 03:57:47;;;;;;;12.20;4.22;;;-4.20;91.50;;;;;;4629922;30;20059;-79
2023/02/06 04:00:55;;;;;;;20.15;5.43;;;-4.30;91.40;;;;;;4576847;31;20052;-81
2023/02/06 04:03:57;;;;;;;15.40;5.65;;;-4.30;91.10;;;;;;4598356;31;20133;-80
2023/02/06 04:06:25;;;;;;;18.92;5.20;;;-4.60;91.30;;;;;;4590362;31;20060;-80
2023/02/06 04:08:53;;;;;;;15.80;4.80;;;-4.30;91.80;;;;;;4595142;31;20459;-80
2023/02/06 04:11:21;;;;;;;13.27;3.97;;;-4.30;92.10;;;;;;4593135;31;20049;-82
2023/02/06 04:13:49;;;;;;;11.40;3.75;;;-3.70;92.40;;;;;;4560416;31;20060;-80
2023/02/06 04:16:42;;;;;;;27.58;10.38;;;-4.80;92.20;;;;;;4537346;31;20065;-80
2023/02/06 04:20:04;;;;;;;15.98;6.80;;;-4.30;92.00;;;;;;4621619;30;20043;-80
2023/02/06 04:23:13;;;;;;;15.02;6.25;;;-4.70;92.00;;;;;;4609680;31;20051;-83
2023/02/06 04:26:24;;;;;;;13.27;4.38;;;-4.40;92.40;;;;;;4604169;31;20060;-80
2023/02/06 04:29:05;;;;;;;17.73;4.75;;;-4.40;92.80;;;;;;4600388;31;20151;-79
2023/02/06 04:32:05;;;;;;;13.30;4.95;;;-4.40;92.90;;;;;;4595534;31;20061;-78
2023/02/06 04:35:19;;;;;;;17.48;6.50;;;-4.40;92.60;;;;;;4610864;31;20048;-83
2023/02/06 04:37:49;;;;;;;16.05;5.57;;;-4.40;92.40;;;;;;4579786;31;20057;-82
2023/02/06 04:40:20;;;;;;;19.27;5.68;;;-4.50;92.20;;;;;;4567678;31;20096;-83
2023/02/06 04:42:54;;;;;;;19.27;5.97;;;-4.40;92.50;;;;;;4577703;31;20061;-83
2023/02/06 04:45:36;;;;;;;14.32;5.78;;;-4.50;92.70;;;;;;4539969;31;20061;-80
2023/02/06 04:48:07;;;;;;;16.20;5.03;;;-4.50;92.80;;;;;;4549544;31;20091;-80
2023/02/06 04:51:05;;;;;;;18.75;5.03;;;-4.50;92.70;;;;;;4547954;31;20084;-81
2023/02/06 04:54:04;;;;;;;9.52;4.28;;;-5.40;92.30;;;;;;4547150;31;20459;-82
2023/02/06 04:57:22;;;;;;;14.13;4.60;;;-4.90;92.50;;;;;;4530187;31;20867;-80
2023/02/06 05:00:09;;;;;;;11.57;4.88;;;-4.60;92.70;;;;;;4542541;31;20038;-81
2023/02/06 05:03:24;;;;;;;12.13;4.88;;;-4.50;92.60;;;;;;4502658;31;20059;-82
2023/02/06 05:06:02;;;;;;;16.27;4.68;;;-3.70;92.90;;;;;;4509182;31;20086;-79
2023/02/06 05:08:36;;;;;;;15.57;4.80;;;-3.50;93.60;;;;;;4525423;31;20167;-80
2023/02/06 05:11:09;;;;;;;19.23;5.63;;;-4.70;93.80;;;;;;4515983;31;20051;-79
2023/02/06 05:14:58;;;;;;;13.00;4.38;;;-4.20;94.00;;;;;;4546209;31;20103;-81
2023/02/06 05:17:43;;;;;;;13.60;4.43;;;-4.50;94.60;;;;;;4516590;31;20058;-79
2023/02/06 05:20:45;;;;;;;12.40;4.25;;;-4.60;94.00;;;;;;4527799;31;20161;-78
2023/02/06 05:24:34;;;;;;;15.38;4.63;;;-4.50;93.90;;;;;;4557049;31;20054;-79
2023/02/06 05:27:44;;;;;;;16.88;5.13;;;-4.50;93.70;;;;;;4514746;31;20087;-79
2023/02/06 05:31:18;;;;;;;20.83;6.47;;;-4.50;94.40;;;;;;4494517;31;20111;-81
2023/02/06 05:34:49;;;;;;;24.95;7.65;;;-4.50;94.20;;;;;;4490598;31;20070;-83
2023/02/06 05:41:07;;;;;;;21.77;6.50;;;-4.50;94.70;;;;;;4787605;24;20083;-87
2023/02/06 05:44:29;;;;;;;21.63;7.32;;;-4.50;94.70;;;;;;4715554;30;20140;-83
2023/02/06 05:47:21;;;;;;;18.70;7.57;;;-4.90;94.90;;;;;;4651946;30;20142;-85
2023/02/06 05:50:49;;;;;;;21.70;6.50;;;-4.60;95.50;;;;;;4588273;31;20065;-88
2023/02/06 05:54:08;;;;;;;24.88;9.57;;;-4.60;95.00;;;;;;4526164;31;20063;-92
2023/02/06 05:56:58;;;;;;;43.55;15.13;;;-4.60;95.00;;;;;;4518122;31;20055;-88
2023/02/06 05:59:57;;;;;;;37.08;14.88;;;-5.00;94.60;;;;;;4518058;31;20043;-85
2023/02/06 06:03:21;;;;;;;28.48;10.27;;;-4.90;94.40;;;;;;4511191;31;20116;-86
2023/02/06 06:06:21;;;;;;;32.78;11.25;;;-4.60;94.50;;;;;;4525006;31;20055;-86
2023/02/06 06:10:09;;;;;;;22.48;9.35;;;-4.70;94.60;;;;;;4468994;32;20052;-84
2023/02/06 06:13:35;;;;;;;23.20;9.38;;;-5.20;95.10;;;;;;4387005;32;20062;-91
2023/02/06 06:16:46;;;;;;;22.98;8.52;;;-4.80;95.70;;;;;;4414269;32;20145;-88
2023/02/06 06:19:35;;;;;;;21.45;7.70;;;-4.40;95.40;;;;;;4463530;32;20073;-93
2023/02/06 06:22:24;;;;;;;20.20;8.52;;;-4.40;95.60;;;;;;4450031;32;20057;-92
2023/02/06 06:25:06;;;;;;;;;;;-4.50;95.70;;;;;;4438376;32;20054;-88
2023/02/06 06:27:55;;;;;;;20.95;7.35;;;-5.10;95.70;;;;;;4456814;32;19932;-88
2023/02/06 06:31:06;;;;;;;28.17;9.00;;;-4.40;95.80;;;;;;4452970;32;20065;-89
2023/02/06 07:00:35;;;;;;;28.83;9.18;;;-4.00;93.40;;;;;;5474223;24;20137;31
2023/02/06 07:03:04;;;;;;;24.17;9.45;;;-4.00;93.20;;;;;;4725703;30;20056;-79
2023/02/06 07:05:33;;;;;;;30.20;9.98;;;-3.90;92.60;;;;;;4704576;30;20254;-79
2023/02/06 07:08:00;;;;;;;21.48;7.45;;;-3.90;92.60;;;;;;4702804;30;20049;-79
2023/02/06 07:10:27;;;;;;;25.52;8.48;;;-3.80;92.70;;;;;;4718740;30;20055;-78
2023/02/06 07:12:55;;;;;;;22.63;9.63;;;-3.80;92.00;;;;;;4728199;30;20048;-79
2023/02/06 07:15:22;;;;;;;19.95;7.65;;;-3.80;91.70;;;;;;4722127;30;20107;-78
2023/02/06 07:17:50;;;;;;;19.83;7.43;;;-3.80;91.60;;;;;;4723028;30;20091;-78
2023/02/06 07:20:17;;;;;;;19.05;7.65;;;-3.70;91.70;;;;;;4725877;30;20510;-78
2023/02/06 07:22:46;;;;;;;14.30;5.85;;;-3.70;91.70;;;;;;4706461;30;20052;-78
2023/02/06 07:25:13;;;;;;;20.08;7.25;;;-3.60;91.60;;;;;;4703117;30;20650;-78
2023/02/06 07:27:40;;;;;;;24.08;7.13;;;-3.60;91.40;;;;;;4723566;30;20048;-78
2023/02/06 07:30:08;;;;;;;20.25;8.18;;;-3.60;91.40;;;;;;4715372;30;20051;-78
2023/02/06 07:32:36;;;;;;;25.58;8.25;;;-3.50;91.20;;;;;;4716750;30;20045;-78
2023/02/06 07:35:03;;;;;;;26.45;9.05;;;-3.40;91.20;;;;;;4704852;30;20073;-78
2023/02/06 07:37:31;;;;;;;24.50;8.88;;;-3.40;91.00;;;;;;4704761;30;20055;-78
2023/02/06 07:39:58;;;;;;;18.90;6.78;;;-3.40;90.90;;;;;;4708157;30;20517;-78
2023/02/06 07:42:25;;;;;;;20.50;7.75;;;-3.30;90.60;;;;;;4703606;30;20109;-78
2023/02/06 07:44:59;;;;;;;15.43;6.20;;;-3.20;90.90;;;;;;4726623;30;20405;-78
2023/02/06 07:47:26;;;;;;;13.55;5.10;;;-3.20;90.40;;;;;;4722500;30;20141;-78
2023/02/06 07:49:53;;;;;;;13.02;5.15;;;-3.20;89.70;;;;;;4709811;30;20052;-79
2023/02/06 07:52:21;;;;;;;14.38;6.18;;;-3.20;88.90;;;;;;4706909;30;20060;-79
2023/02/06 07:54:48;;;;;;;16.08;5.72;;;-3.10;88.80;;;;;;4722493;30;20056;-79
2023/02/06 07:57:15;;;;;;;16.42;5.65;;;-3.00;89.00;;;;;;4705689;30;20057;-79
2023/02/06 07:59:43;;;;;;;17.45;5.93;;;-3.00;88.60;;;;;;4723899;30;20052;-78
2023/02/06 08:02:11;;;;;;;13.73;5.50;;;-2.90;88.30;;;;;;4720611;30;20191;-79
2023/02/06 08:04:38;;;;;;;19.13;5.75;;;-2.90;87.70;;;;;;4705677;30;20246;-78
2023/02/06 08:07:08;;;;;;;18.00;6.15;;;-2.90;86.80;;;;;;4704118;30;20144;-78
2023/02/06 08:09:35;;;;;;;21.38;7.05;;;-2.80;87.30;;;;;;4723228;30;20044;-78
2023/02/06 08:12:02;;;;;;;18.95;6.20;;;-2.80;86.60;;;;;;4702618;30;20453;-78
2023/02/06 08:14:30;;;;;;;16.63;6.28;;;-2.70;86.40;;;;;;4706231;30;20064;-78
2023/02/06 08:16:57;;;;;;;18.40;6.45;;;-2.60;86.80;;;;;;4723160;30;20103;-78
2023/02/06 08:19:24;;;;;;;15.35;5.70;;;-2.60;86.60;;;;;;4722753;30;20052;-77
2023/02/06 08:21:53;;;;;;;14.70;5.35;;;-2.50;86.30;;;;;;4723132;30;20045;-78
2023/02/06 08:24:20;;;;;;;11.32;4.10;;;-2.50;85.00;;;;;;4709646;30;20045;-79
2023/02/06 08:26:47;;;;;;;15.73;5.40;;;-1.70;84.00;;;;;;4707594;30;20057;-78
2023/02/06 08:29:14;;;;;;;17.52;5.72;;;-2.50;83.50;;;;;;4705946;30;20048;-78
2023/02/06 08:31:43;;;;;;;9.48;3.28;;;-2.40;83.60;;;;;;4685159;30;20537;-78
2023/02/06 08:34:13;;;;;;;14.02;5.60;;;-2.40;83.00;;;;;;4705432;30;20057;-78
2023/02/06 08:36:40;;;;;;;12.68;3.95;;;-2.30;83.60;;;;;;4723875;30;20135;-78
2023/02/06 08:39:12;;;;;;;11.77;4.50;;;-2.20;83.70;;;;;;4691781;30;20140;-78
2023/02/06 08:41:41;;;;;;;10.68;4.28;;;-2.20;82.60;;;;;;4704259;30;20053;-78
2023/02/06 08:44:14;;;;;;;14.38;4.53;;;-2.20;83.10;;;;;;4706670;30;20544;-78
2023/02/06 08:46:43;;;;;;;11.35;4.30;;;-2.00;83.50;;;;;;4724827;30;20056;-77
2023/02/06 08:49:16;;;;;;;17.58;4.95;;;-2.00;83.10;;;;;;4693282;30;20049;-77
2023/02/06 08:51:44;;;;;;;17.50;5.68;;;-1.90;83.40;;;;;;4720771;30;20593;-78
2023/02/06 08:54:14;;;;;;;18.75;6.90;;;-1.80;83.00;;;;;;4710202;30;20064;-78
2023/02/06 08:56:41;;;;;;;18.60;6.30;;;-1.90;81.80;;;;;;4711041;30;20386;-78
2023/02/06 08:59:10;;;;;;;16.38;6.30;;;-1.80;81.90;;;;;;4710516;30;20044;-78
2023/02/06 09:01:37;;;;;;;14.35;4.72;;;-1.90;80.90;;;;;;4714852;30;20071;-78
2023/02/06 09:04:08;;;;;;;13.57;5.13;;;-1.80;81.10;;;;;;4712503;30;20148;-78
2023/02/06 09:06:37;;;;;;;15.73;4.57;;;-1.60;81.70;;;;;;4729044;30;20423;-78
2023/02/06 09:09:06;;;;;;;13.18;5.38;;;-1.50;81.90;;;;;;4731193;30;20119;-77
2023/02/06 09:11:33;;;;;;;12.02;4.90;;;-1.50;80.30;;;;;;4693771;30;20060;-77
2023/02/06 09:14:03;;;;;;;14.18;3.95;;;-1.60;80.30;;;;;;4719044;30;20328;-77
2023/02/06 09:16:33;;;;;;;19.50;6.85;;;-1.50;80.10;;;;;;4709961;30;20111;-77
2023/02/06 09:19:01;;;;;;;10.65;3.88;;;-1.40;79.70;;;;;;4728119;30;20048;-77
2023/02/06 09:21:30;;;;;;;12.73;5.57;;;-1.40;80.00;;;;;;4698126;30;20060;-77
2023/02/06 09:24:01;;;;;;;14.98;5.57;;;-1.30;79.50;;;;;;4701995;30;20052;-79
2023/02/06 09:26:37;;;;;;;12.10;4.43;;;-1.30;78.70;;;;;;4725607;30;20056;-78
2023/02/06 09:29:19;;;;;;;19.30;6.85;;;-1.20;79.50;;;;;;4724939;30;20063;-77
2023/02/06 09:31:46;;;;;;;17.40;4.78;;;-1.10;79.00;;;;;;4723979;30;20049;-78
2023/02/06 09:34:13;;;;;;;16.38;5.35;;;-1.00;78.70;;;;;;4711456;30;20152;-78
2023/02/06 09:36:40;;;;;;;16.33;5.65;;;-1.10;77.10;;;;;;4712418;30;20063;-77
2023/02/06 09:39:08;;;;;;;106.35;33.53;;;-1.10;77.10;;;;;;4716863;30;20146;-78
2023/02/06 09:42:14;;;;;;;22.10;6.38;;;-1.00;77.20;;;;;;4714221;30;20050;-78
2023/02/06 09:44:47;;;;;;;13.95;4.43;;;-1.00;76.70;;;;;;4727816;30;20049;-79
2023/02/06 09:47:24;;;;;;;11.45;4.18;;;-1.00;76.80;;;;;;4710624;30;20052;-78
2023/02/06 09:49:55;;;;;;;14.00;4.65;;;-0.90;76.80;;;;;;4710453;30;20083;-78
2023/02/06 09:52:28;;;;;;;11.65;4.90;;;-0.90;76.40;;;;;;4727947;30;20053;-78
2023/02/06 09:55:28;;;;;;;11.15;4.78;;;-0.80;76.80;;;;;;4707640;30;20052;-78
2023/02/06 09:57:55;;;;;;;13.45;4.00;;;-0.70;77.80;;;;;;4709832;30;20461;-78
2023/02/06 10:00:45;;;;;;;13.13;4.50;;;-0.60;78.20;;;;;;4721858;30;20070;-78
2023/02/06 10:03:19;;;;;;;13.02;4.57;;;-0.60;77.70;;;;;;4710017;30;20051;-78
2023/02/06 10:06:00;;;;;;;14.75;5.13;;;-0.50;76.50;;;;;;4714183;30;20047;-78
2023/02/06 10:08:38;;;;;;;16.98;6.13;;;-0.50;77.50;;;;;;4708313;30;20053;-78
2023/02/06 10:11:16;;;;;;;13.57;6.40;;;-0.50;76.30;;;;;;4709976;30;20425;-78
2023/02/06 10:13:57;;;;;;;13.50;4.50;;;-0.40;76.60;;;;;;4728203;30;20083;-78
2023/02/06 10:17:04;;;;;;;14.95;6.15;;;-0.40;76.90;;;;;;4722796;30;20144;-78
2023/02/06 10:19:47;;;;;;;13.38;4.43;;;-0.40;76.20;;;;;;4657459;30;20065;-78
2023/02/06 10:22:30;;;;;;;16.38;5.78;;;-0.30;75.90;;;;;;4706170;30;20146;-78
2023/02/06 10:25:06;;;;;;;14.50;5.18;;;-0.40;75.80;;;;;;4722372;30;20049;-78
2023/02/06 10:27:36;;;;;;;24.35;11.02;;;-0.40;75.80;;;;;;4710777;30;20053;-78
2023/02/06 10:30:03;;;;;;;30.35;11.85;;;-0.40;75.50;;;;;;4711663;30;20127;-79
2023/02/06 10:32:55;;;;;;;13.30;5.18;;;-0.30;76.50;;;;;;4699076;30;20061;-79
2023/02/06 10:35:47;;;;;;;24.67;12.65;;;-0.30;75.50;;;;;;4727315;30;20383;-79
2023/02/06 10:38:50;;;;;;;19.88;6.22;;;-0.20;75.40;;;;;;4721170;30;20147;-78
2023/02/06 10:41:20;;;;;;;13.95;4.80;;;-0.20;74.90;;;;;;4729653;30;20045;-79
2023/02/06 10:44:06;;;;;;;12.40;5.05;;;-0.10;75.10;;;;;;4724231;30;20053;-79
2023/02/06 10:46:44;;;;;;;13.25;5.18;;;-0.10;74.80;;;;;;4721780;30;20056;-79
2023/02/06 10:49:44;;;;;;;12.88;5.85;;;-0.20;74.90;;;;;;4707679;30;20071;-79
2023/02/06 10:52:26;;;;;;;17.65;5.30;;;0.00;74.80;;;;;;4725870;30;20059;-79
2023/02/06 10:55:11;;;;;;;16.25;5.70;;;0.00;74.30;;;;;;4716850;30;20163;-79
2023/02/06 10:57:41;;;;;;;17.50;5.57;;;0.10;74.10;;;;;;4682624;30;20052;-79
2023/02/06 11:00:25;;;;;;;20.75;8.43;;;0.10;74.20;;;;;;4718836;30;20416;-79
2023/02/06 11:02:57;;;;;;;10.80;4.68;;;0.10;73.40;;;;;;4711362;30;20087;-79
2023/02/06 11:05:35;;;;;;;12.98;5.55;;;0.10;72.00;;;;;;4704844;30;20070;-78
2023/02/06 11:08:08;;;;;;;15.88;4.55;;;0.30;73.40;;;;;;4693451;30;20064;-79
2023/02/06 11:10:36;;;;;;;;;;;0.50;72.10;;;;;;4706126;30;20060;-79
2023/02/06 11:13:13;;;;;;;10.13;3.40;;;0.60;73.30;;;;;;4698665;30;19930;-78
2023/02/06 11:15:49;;;;;;;10.20;3.78;;;0.70;71.70;;;;;;4727800;30;20079;-78
2023/02/06 11:18:24;;;;;;;11.18;3.85;;;0.80;72.00;;;;;;4726031;30;20061;-80
2023/02/06 11:23:42;;;;;;;16.08;7.03;;;0.80;71.40;;;;;;4775900;24;20029;-80
2023/02/06 11:26:38;;;;;;;11.60;4.45;;;0.60;70.80;;;;;;4697683;30;20053;-79
2023/02/06 11:29:18;;;;;;;10.35;4.07;;;0.60;70.70;;;;;;4714691;30;20413;-79
2023/02/06 11:31:59;;;;;;;12.60;3.97;;;0.70;70.50;;;;;;4707718;30;20702;-79
2023/02/06 11:34:31;;;;;;;23.52;8.48;;;0.90;70.30;;;;;;4718086;30;20164;-77
2023/02/06 11:37:01;;;;;;;12.80;4.15;;;0.90;70.10;;;;;;4697460;30;20169;-79
2023/02/06 11:39:38;;;;;;;9.57;3.13;;;1.00;69.90;;;;;;4764075;24;20524;-79
2023/02/06 11:42:17;;;;;;;9.15;3.53;;;1.00;67.70;;;;;;4731033;30;20505;-79
2023/02/06 11:44:47;;;;;;;9.20;4.40;;;1.10;68.90;;;;;;4807628;24;20068;-78
2023/02/06 11:47:35;;;;;;;10.98;3.60;;;1.20;67.90;;;;;;4719018;30;20052;-79
2023/02/06 11:50:53;;;;;;;11.10;4.15;;;1.20;67.20;;;;;;4808916;24;20077;-77
2023/02/06 11:54:22;;;;;;;8.23;3.17;;;1.70;67.10;;;;;;4713315;24;20072;-77
2023/02/06 12:06:40;;;;;;;100.72;21.70;;;1.40;65.50;;;;;;4714024;30;20451;-78
2023/02/06 12:09:11;;;;;;;17.88;5.30;;;1.10;65.80;;;;;;4733164;30;20052;-80
2023/02/06 12:15:18;;;;;;;26.40;7.90;;;1.10;66.10;;;;;;5139189;24;20049;-79
2023/02/06 12:18:26;;;;;;;11.30;3.22;;;1.00;66.40;;;;;;4959514;24;20912;-79
2023/02/06 12:23:57;;;;;;;9.35;3.40;;;1.00;65.70;;;;;;4697511;30;20132;-78
2023/02/06 12:26:36;;;;;;;7.10;2.88;;;1.20;66.80;;;;;;4668562;30;20054;-78
2023/02/06 12:36:24;;;;;;;10.98;2.70;;;1.00;66.20;;;;;;4947447;24;20033;31
2023/02/06 12:39:01;;;;;;;11.85;5.03;;;1.20;67.20;;;;;;4682246;30;20058;-80
2023/02/06 12:48:14;;;;;;;15.40;5.25;;;1.30;66.90;;;;;;4712251;30;20504;-79
2023/02/06 12:51:20;;;;;;;11.77;3.70;;;1.30;67.20;;;;;;4699227;30;20049;-79
2023/02/06 12:56:40;;;;;;;11.70;4.18;;;1.20;66.50;;;;;;5321981;24;21887;-80
2023/02/06 12:59:38;;;;;;;9.50;3.60;;;1.10;66.40;;;;;;4704730;30;20052;-79
2023/02/06 13:02:46;;;;;;;9.13;4.20;;;1.20;66.50;;;;;;4708536;30;20057;-80
2023/02/06 13:05:39;;;;;;;18.20;8.23;;;0.00;66.30;;;;;;4717960;30;20421;-78
2023/02/06 13:11:28;;;;;;;12.77;5.00;;;1.00;66.70;;;;;;5748954;24;20047;31
2023/02/06 13:14:15;;;;;;;19.52;11.30;;;1.00;66.80;;;;;;4687423;30;20065;-78
2023/02/06 13:16:55;;;;;;;10.73;4.80;;;0.90;67.50;;;;;;4661666;30;20045;-79
2023/02/06 13:19:29;;;;;;;22.45;9.52;;;1.00;67.20;;;;;;4692357;30;20103;-80
2023/02/06 13:22:09;;;;;;;16.77;8.32;;;0.90;67.20;;;;;;4675520;30;20108;-78
2023/02/06 13:24:38;;;;;;;11.30;4.43;;;1.00;68.00;;;;;;4694672;30;20057;-80
2023/02/06 13:27:06;;;;;;;14.85;5.25;;;1.10;67.40;;;;;;4697584;30;20910;-79
2023/02/06 13:29:47;;;;;;;12.60;5.10;;;1.20;68.50;;;;;;4686452;30;20073;-79
2023/02/06 13:35:12;;;;;;;9.18;4.28;;;1.20;68.00;;;;;;4719831;30;19934;-78
2023/02/06 13:37:46;;;;;;;11.55;4.70;;;1.20;68.80;;;;;;4681427;30;20049;-78
2023/02/06 13:40:27;;;;;;;9.38;4.60;;;1.10;68.10;;;;;;4693068;30;20032;-78
2023/02/06 13:43:09;;;;;;;13.05;5.00;;;1.20;68.50;;;;;;4721691;30;20110;-78
2023/02/06 13:45:56;;;;;;;13.43;5.55;;;1.10;68.40;;;;;;4687912;30;20184;-80
2023/02/06 13:51:49;;;;;;;16.85;5.45;;;1.40;68.40;;;;;;4708847;30;20068;-80
2023/02/06 13:54:52;;;;;;;12.80;4.38;;;0.90;69.30;;;;;;4710700;30;20906;-79
2023/02/06 13:57:38;;;;;;;11.40;4.28;;;0.90;68.80;;;;;;4705658;30;20067;-79
2023/02/06 14:00:22;;;;;;;11.25;4.28;;;0.90;68.50;;;;;;4709835;30;20021;-78
2023/02/06 14:02:55;;;;;;;13.88;5.38;;;0.90;68.90;;;;;;4714056;30;20044;-80
2023/02/06 14:05:39;;;;;;;19.27;6.32;;;0.90;68.70;;;;;;4695952;30;20045;-79
2023/02/06 14:08:48;;;;;;;10.65;4.18;;;0.90;69.40;;;;;;4690967;30;20064;-78
2023/02/06 14:11:31;;;;;;;10.65;4.03;;;0.80;68.70;;;;;;4665781;30;20099;-78
2023/02/06 14:14:27;;;;;;;12.88;3.92;;;0.80;69.50;;;;;;4693130;30;20068;-78
2023/02/06 14:17:10;;;;;;;10.63;4.43;;;0.70;69.50;;;;;;4715369;30;20512;-79
2023/02/06 14:19:46;;;;;;;17.25;6.18;;;0.70;68.80;;;;;;5014247;24;20050;-79
2023/02/06 14:25:23;;;;;;;14.10;5.15;;;0.70;68.40;;;;;;5751278;24;20054;31
2023/02/06 14:28:18;;;;;;;14.30;5.57;;;0.70;68.70;;;;;;4725061;30;20049;-78
2023/02/06 14:31:34;;;;;;;17.23;6.00;;;0.70;68.70;;;;;;4714052;30;20536;-79
2023/02/06 14:37:41;;;;;;;10.65;3.30;;;0.60;68.70;;;;;;4717789;30;20064;-79
2023/02/06 14:40:27;;;;;;;11.32;4.15;;;0.60;68.80;;;;;;4710259;30;20486;-79
2023/02/06 14:43:02;;;;;;;11.63;4.40;;;0.50;68.90;;;;;;4727924;30;20059;-79
2023/02/06 14:45:35;;;;;;;9.90;4.28;;;0.50;69.30;;;;;;4717729;30;20063;-79
2023/02/06 14:48:25;;;;;;;10.85;4.53;;;0.50;69.00;;;;;;4679452;30;20030;-79
2023/02/06 14:57:38;;;;;;;15.38;5.68;;;0.40;70.00;;;;;;793800;24;20318;-79
2023/02/06 15:00:28;;;;;;;15.00;6.50;;;0.40;71.50;;;;;;5476531;24;20026;31
2023/02/06 15:03:25;;;;;;;16.30;5.22;;;0.40;71.20;;;;;;4709321;30;20121;-80
2023/02/06 15:06:11;;;;;;;8.60;3.92;;;0.20;71.10;;;;;;4707691;30;20312;-80
2023/02/06 15:08:48;;;;;;;10.52;4.70;;;0.20;71.30;;;;;;4700240;30;20053;-80
2023/02/06 15:11:39;;;;;;;17.38;5.55;;;-0.70;71.10;;;;;;4679812;30;20137;-80
2023/02/06 15:14:35;;;;;;;14.50;6.05;;;0.10;72.10;;;;;;4700435;30;20056;-80
2023/02/06 15:17:21;;;;;;;15.98;6.38;;;-0.10;72.00;;;;;;4833287;24;20063;-79
2023/02/06 15:20:22;;;;;;;13.23;5.45;;;0.00;72.50;;;;;;4731456;30;20052;-79
2023/02/06 15:23:40;;;;;;;12.73;4.82;;;0.00;72.20;;;;;;5092588;24;20088;-78
2023/02/06 15:29:39;;;;;;;19.67;6.72;;;-0.20;72.20;;;;;;5031383;24;20070;31
2023/02/06 15:32:32;;;;;;;17.52;8.50;;;-0.10;72.30;;;;;;4734475;30;20053;-79
2023/02/06 15:35:01;;;;;;;10.65;5.07;;;-0.10;72.60;;;;;;4711906;30;20068;-78
2023/02/06 15:37:37;;;;;;;24.70;10.02;;;-0.20;72.70;;;;;;4698567;30;20514;-79
2023/02/06 15:40:32;;;;;;;18.50;7.07;;;-0.20;73.20;;;;;;4706159;30;20062;-79
2023/02/06 15:43:02;;;;;;;17.38;6.80;;;-0.30;73.20;;;;;;4711425;30;20077;-79
2023/02/06 15:45:38;;;;;;;17.27;8.30;;;-0.30;73.40;;;;;;4712995;30;20510;-79
2023/02/06 15:48:18;;;;;;;16.63;6.32;;;-0.40;73.70;;;;;;4716906;30;20060;-79
2023/02/06 15:51:13;;;;;;;17.33;6.15;;;-0.40;74.00;;;;;;4675460;30;20061;-78
2023/02/06 15:57:30;;;;;;;14.52;6.80;;;-0.50;75.00;;;;;;4723918;30;20106;-79
2023/02/06 16:00:17;;;;;;;17.13;6.15;;;-0.60;74.50;;;;;;4702792;30;20048;-79
2023/02/06 16:03:03;;;;;;;16.08;6.28;;;-0.60;75.00;;;;;;4676691;30;20057;-79
2023/02/06 16:05:39;;;;;;;23.17;7.55;;;-0.60;75.20;;;;;;4715030;30;20083;-80
2023/02/06 20:10:37;;;;;;;53.75;17.98;;;-2.70;91.00;;;;;;4716908;30;20056;-79
2023/02/06 20:13:59;;;;;;;64.85;22.63;;;-2.80;91.40;;;;;;4717756;30;20088;-79
2023/02/06 20:17:27;;;;;;;83.57;26.27;;;-2.80;91.40;;;;;;4705275;30;20061;-79
2023/02/06 20:20:29;;;;;;;100.05;29.63;;;-2.90;91.90;;;;;;4671532;30;20073;-79
2023/02/06 20:23:25;;;;;;;87.20;30.13;;;-2.90;92.10;;;;;;4655587;30;20113;-79
2023/02/06 20:26:45;;;;;;;85.55;26.10;;;-2.90;92.40;;;;;;4675204;30;20099;-79
2023/02/06 20:29:54;;;;;;;79.82;25.60;;;-2.90;92.20;;;;;;4649244;30;20058;-79
2023/02/06 20:32:42;;;;;;;82.35;28.88;;;-2.90;92.40;;;;;;4660628;30;20051;-79
2023/02/06 20:35:39;;;;;;;74.38;24.48;;;-3.00;92.40;;;;;;4643711;30;20047;-79
2023/02/06 20:38:20;;;;;;;70.10;24.55;;;-3.00;92.50;;;;;;4635058;30;20059;-79
2023/02/06 20:40:56;;;;;;;91.95;28.70;;;-3.00;92.80;;;;;;4663880;30;20066;-79
2023/02/06 20:44:11;;;;;;;81.95;24.60;;;-3.00;92.90;;;;;;4616824;31;20076;-79
2023/02/06 20:47:17;;;;;;;71.22;22.90;;;-3.00;92.90;;;;;;4599267;31;20052;-79
2023/02/06 20:50:26;;;;;;;105.47;29.63;;;-3.00;93.00;;;;;;4574380;31;20061;-79
2023/02/06 20:53:23;;;;;;;95.10;26.70;;;-3.10;92.90;;;;;;4547089;31;20096;-79
2023/02/06 20:56:15;;;;;;;89.75;28.38;;;-3.10;93.40;;;;;;4546695;31;20121;-79
2023/02/06 20:58:51;;;;;;;91.93;28.92;;;-3.10;93.40;;;;;;4531297;31;20112;-79
2023/02/06 21:01:30;;;;;;;84.47;28.35;;;-3.10;93.50;;;;;;4516390;31;20125;-80
2023/02/06 21:04:18;;;;;;;89.35;26.88;;;-3.20;93.50;;;;;;4529684;31;20058;-80
2023/02/06 21:06:57;;;;;;;73.28;24.40;;;-3.20;93.60;;;;;;4551429;31;20050;-80
2023/02/06 21:09:39;;;;;;;66.60;24.83;;;-3.20;93.80;;;;;;4551842;31;20108;-80
2023/02/06 21:12:45;;;;;;;70.30;22.45;;;-3.30;93.80;;;;;;4565960;31;20080;-80
2023/02/06 21:15:40;;;;;;;83.57;24.92;;;-3.30;93.70;;;;;;4598441;31;20081;-80
2023/02/06 21:18:29;;;;;;;120.40;37.92;;;-3.30;93.80;;;;;;4561704;31;20065;-80
2023/02/06 21:21:16;;;;;;;132.73;41.85;;;-3.40;94.10;;;;;;4570220;31;20048;-80
2023/02/06 21:24:07;;;;;;;140.05;42.20;;;-3.40;94.40;;;;;;4580614;31;20086;-80
2023/02/06 21:27:12;;;;;;;116.53;37.30;;;-3.40;94.60;;;;;;4573186;31;20061;-80
2023/02/06 21:30:03;;;;;;;121.13;39.83;;;-3.50;94.70;;;;;;4535826;31;20058;-80
2023/02/06 21:32:51;;;;;;;116.22;39.28;;;-3.50;94.60;;;;;;4531034;31;20066;-80
2023/02/06 21:35:38;;;;;;;150.45;48.88;;;-3.60;94.60;;;;;;4563039;31;20057;-80
2023/02/06 21:38:38;;;;;;;125.78;45.88;;;-3.60;94.60;;;;;;4571942;31;20484;-80
2023/02/06 21:41:33;;;;;;;147.18;49.55;;;-3.30;94.80;;;;;;4573278;31;20065;-80
2023/02/06 21:45:36;;;;;;;133.70;42.22;;;-3.60;94.60;;;;;;4612028;31;20072;-80
2023/02/06 21:48:33;;;;;;;76.57;29.27;;;-3.50;94.60;;;;;;4614792;31;20059;-80
2023/02/06 21:51:38;;;;;;;81.38;30.15;;;-3.60;94.30;;;;;;4603220;31;20058;-80
2023/02/06 21:54:28;;;;;;;91.28;30.75;;;-3.60;94.30;;;;;;4589740;31;20052;-80
2023/02/06 21:57:51;;;;;;;89.93;30.70;;;-2.70;94.50;;;;;;4597583;31;20056;-80
2023/02/06 22:00:39;;;;;;;85.30;31.00;;;-3.60;94.20;;;;;;4595517;31;20057;-77
2023/02/06 22:03:10;;;;;;;89.00;29.33;;;-3.60;94.40;;;;;;4555601;31;20057;-77
2023/02/06 22:05:47;;;;;;;92.30;32.55;;;-3.60;94.60;;;;;;4559815;31;20116;-77
2023/02/06 22:08:22;;;;;;;96.88;32.40;;;-3.60;94.60;;;;;;4599520;31;20064;-79
2023/02/06 22:10:54;;;;;;;90.07;31.95;;;-3.60;94.60;;;;;;4561039;31;20125;-78
2023/02/06 22:13:32;;;;;;;92.53;31.15;;;-3.60;94.60;;;;;;4625210;31;20053;-77
2023/02/06 22:16:09;;;;;;;88.28;30.42;;;-3.70;94.60;;;;;;4560036;31;20053;-79
2023/02/06 22:18:50;;;;;;;73.40;26.88;;;-3.80;94.70;;;;;;4588916;31;20059;-78